sensor_id;sensor_type;location;lat;lon;timestamp;P1;durP1;ratioP1;P2;durP2;ratioP2
9698;SDS011;10089;47.876;8.346;2023-07-20T00:00:48;3.95;;;1.60;;
9698;SDS011;10089;47.876;8.346;2023-07-20T00:03:18;1.95;;;1.55;;
9698;SDS011;10089;47.876;8.346;2023-07-20T00:05:48;2.90;;;1.60;;
9698;SDS011;10089;47.876;8.346;2023-07-20T00:08:14;3.13;;;1.85;;
9698;SDS011;10089;47.876;8.346;2023-07-20T00:10:40;1.98;;;1.77;;
9698;SDS011;10089;47.876;8.346;2023-07-20T00:13:06;1.95;;;1.58;;
9698;SDS011;10089;47.876;8.346;2023-07-20T00:15:32;5.47;;;1.90;;
9698;SDS011;10089;47.876;8.346;2023-07-20T00:17:57;2.35;;;1.70;;
9698;SDS011;10089;47.876;8.346;2023-07-20T00:20:24;2.45;;;1.92;;
9698;SDS011;10089;47.876;8.346;2023-07-20T00:22:52;6.60;;;2.00;;
9698;SDS011;10089;47.876;8.346;2023-07-20T00:25:19;4.05;;;1.60;;
9698;SDS011;10089;47.876;8.346;2023-07-20T00:27:45;4.60;;;1.88;;
9698;SDS011;10089;47.876;8.346;2023-07-20T00:30:11;5.10;;;2.03;;
9698;SDS011;10089;47.876;8.346;2023-07-20T00:32:37;2.97;;;1.90;;
9698;SDS011;10089;47.876;8.346;2023-07-20T00:35:03;4.47;;;2.15;;
9698;SDS011;10089;47.876;8.346;2023-07-20T00:37:28;3.40;;;1.95;;
9698;SDS011;10089;47.876;8.346;2023-07-20T00:39:54;3.42;;;1.90;;
9698;SDS011;10089;47.876;8.346;2023-07-20T00:42:20;3.72;;;2.08;;
9698;SDS011;10089;47.876;8.346;2023-07-20T00:44:46;5.03;;;2.03;;
9698;SDS011;10089;47.876;8.346;2023-07-20T00:47:11;3.13;;;1.77;;
9698;SDS011;10089;47.876;8.346;2023-07-20T00:49:37;3.65;;;2.40;;
9698;SDS011;10089;47.876;8.346;2023-07-20T00:52:03;4.53;;;1.90;;
9698;SDS011;10089;47.876;8.346;2023-07-20T00:54:31;3.92;;;2.13;;
9698;SDS011;10089;47.876;8.346;2023-07-20T00:56:57;4.32;;;2.03;;
9698;SDS011;10089;47.876;8.346;2023-07-20T00:59:25;2.75;;;2.20;;
9698;SDS011;10089;47.876;8.346;2023-07-20T01:01:51;4.97;;;2.20;;
9698;SDS011;10089;47.876;8.346;2023-07-20T01:04:17;6.50;;;2.15;;
9698;SDS011;10089;47.876;8.346;2023-07-20T01:06:48;3.13;;;1.90;;
9698;SDS011;10089;47.876;8.346;2023-07-20T01:09:34;10.18;;;2.33;;
9698;SDS011;10089;47.876;8.346;2023-07-20T01:12:13;3.17;;;2.33;;
9698;SDS011;10089;47.876;8.346;2023-07-20T01:14:44;6.15;;;2.38;;
9698;SDS011;10089;47.876;8.346;2023-07-20T01:17:10;3.97;;;2.42;;
9698;SDS011;10089;47.876;8.346;2023-07-20T01:19:37;4.18;;;2.65;;
9698;SDS011;10089;47.876;8.346;2023-07-20T01:22:09;6.30;;;2.92;;
9698;SDS011;10089;47.876;8.346;2023-07-20T01:25:02;5.82;;;2.53;;
9698;SDS011;10089;47.876;8.346;2023-07-20T01:30:50;3.70;;;2.35;;
9698;SDS011;10089;47.876;8.346;2023-07-20T01:33:24;3.42;;;2.10;;
9698;SDS011;10089;47.876;8.346;2023-07-20T01:35:57;6.93;;;2.50;;
9698;SDS011;10089;47.876;8.346;2023-07-20T01:38:24;8.80;;;2.58;;
9698;SDS011;10089;47.876;8.346;2023-07-20T01:40:50;2.70;;;2.28;;
9698;SDS011;10089;47.876;8.346;2023-07-20T01:43:17;4.55;;;2.28;;
9698;SDS011;10089;47.876;8.346;2023-07-20T01:45:43;4.45;;;2.70;;
9698;SDS011;10089;47.876;8.346;2023-07-20T01:48:09;5.05;;;2.50;;
9698;SDS011;10089;47.876;8.346;2023-07-20T01:50:35;3.35;;;2.50;;
9698;SDS011;10089;47.876;8.346;2023-07-20T01:53:01;3.45;;;2.50;;
9698;SDS011;10089;47.876;8.346;2023-07-20T01:55:28;3.45;;;2.60;;
9698;SDS011;10089;47.876;8.346;2023-07-20T01:57:54;5.30;;;2.30;;
9698;SDS011;10089;47.876;8.346;2023-07-20T02:00:20;4.20;;;2.42;;
9698;SDS011;10089;47.876;8.346;2023-07-20T02:02:49;5.20;;;2.60;;
9698;SDS011;10089;47.876;8.346;2023-07-20T02:05:14;3.70;;;2.30;;
9698;SDS011;10089;47.876;8.346;2023-07-20T02:07:40;7.88;;;2.45;;
9698;SDS011;10089;47.876;8.346;2023-07-20T02:10:06;5.53;;;2.67;;
9698;SDS011;10089;47.876;8.346;2023-07-20T02:12:31;4.75;;;2.60;;
9698;SDS011;10089;47.876;8.346;2023-07-20T02:15:09;4.10;;;2.83;;
9698;SDS011;10089;47.876;8.346;2023-07-20T02:17:35;4.75;;;2.80;;
9698;SDS011;10089;47.876;8.346;2023-07-20T02:20:01;8.20;;;2.90;;
9698;SDS011;10089;47.876;8.346;2023-07-20T02:22:27;3.78;;;2.60;;
9698;SDS011;10089;47.876;8.346;2023-07-20T02:24:52;4.05;;;2.60;;
9698;SDS011;10089;47.876;8.346;2023-07-20T02:27:18;4.80;;;2.30;;
9698;SDS011;10089;47.876;8.346;2023-07-20T02:29:44;5.18;;;2.70;;
9698;SDS011;10089;47.876;8.346;2023-07-20T02:32:09;4.10;;;2.70;;
9698;SDS011;10089;47.876;8.346;2023-07-20T02:34:35;5.95;;;2.75;;
9698;SDS011;10089;47.876;8.346;2023-07-20T02:37:01;4.40;;;2.28;;
9698;SDS011;10089;47.876;8.346;2023-07-20T02:39:27;4.75;;;2.85;;
9698;SDS011;10089;47.876;8.346;2023-07-20T02:41:53;8.75;;;2.50;;
9698;SDS011;10089;47.876;8.346;2023-07-20T02:44:19;4.82;;;2.65;;
9698;SDS011;10089;47.876;8.346;2023-07-20T02:46:45;6.78;;;2.40;;
9698;SDS011;10089;47.876;8.346;2023-07-20T02:49:10;4.68;;;2.65;;
9698;SDS011;10089;47.876;8.346;2023-07-20T02:51:36;7.32;;;2.92;;
9698;SDS011;10089;47.876;8.346;2023-07-20T02:54:02;6.03;;;2.50;;
9698;SDS011;10089;47.876;8.346;2023-07-20T02:56:28;8.63;;;2.72;;
9698;SDS011;10089;47.876;8.346;2023-07-20T02:58:54;6.50;;;2.88;;
9698;SDS011;10089;47.876;8.346;2023-07-20T03:01:19;7.57;;;2.70;;
9698;SDS011;10089;47.876;8.346;2023-07-20T03:03:45;4.03;;;2.30;;
9698;SDS011;10089;47.876;8.346;2023-07-20T03:06:14;3.97;;;2.85;;
9698;SDS011;10089;47.876;8.346;2023-07-20T03:08:41;4.32;;;2.67;;
9698;SDS011;10089;47.876;8.346;2023-07-20T03:11:15;5.20;;;2.30;;
9698;SDS011;10089;47.876;8.346;2023-07-20T03:13:41;5.45;;;2.80;;
9698;SDS011;10089;47.876;8.346;2023-07-20T03:16:08;3.58;;;2.53;;
9698;SDS011;10089;47.876;8.346;2023-07-20T03:18:36;6.45;;;2.83;;
9698;SDS011;10089;47.876;8.346;2023-07-20T03:21:03;4.93;;;2.67;;
9698;SDS011;10089;47.876;8.346;2023-07-20T03:23:30;4.05;;;2.67;;
9698;SDS011;10089;47.876;8.346;2023-07-20T03:25:55;4.75;;;2.80;;
9698;SDS011;10089;47.876;8.346;2023-07-20T03:28:21;7.75;;;2.67;;
9698;SDS011;10089;47.876;8.346;2023-07-20T03:30:46;4.20;;;2.63;;
9698;SDS011;10089;47.876;8.346;2023-07-20T03:33:19;3.08;;;2.78;;
9698;SDS011;10089;47.876;8.346;2023-07-20T03:35:45;5.00;;;2.40;;
9698;SDS011;10089;47.876;8.346;2023-07-20T03:38:10;2.85;;;2.50;;
9698;SDS011;10089;47.876;8.346;2023-07-20T03:40:36;4.72;;;2.63;;
9698;SDS011;10089;47.876;8.346;2023-07-20T03:43:01;5.32;;;3.22;;
9698;SDS011;10089;47.876;8.346;2023-07-20T03:45:28;6.57;;;3.08;;
9698;SDS011;10089;47.876;8.346;2023-07-20T03:47:53;5.80;;;2.90;;
9698;SDS011;10089;47.876;8.346;2023-07-20T03:50:19;2.97;;;2.60;;
9698;SDS011;10089;47.876;8.346;2023-07-20T03:52:44;4.97;;;2.92;;
9698;SDS011;10089;47.876;8.346;2023-07-20T03:55:10;3.35;;;2.58;;
9698;SDS011;10089;47.876;8.346;2023-07-20T03:57:35;4.60;;;3.03;;
9698;SDS011;10089;47.876;8.346;2023-07-20T04:00:01;5.60;;;3.03;;
9698;SDS011;10089;47.876;8.346;2023-07-20T04:02:31;6.80;;;3.13;;
9698;SDS011;10089;47.876;8.346;2023-07-20T04:04:57;5.15;;;3.35;;
9698;SDS011;10089;47.876;8.346;2023-07-20T04:07:23;3.55;;;2.40;;
9698;SDS011;10089;47.876;8.346;2023-07-20T04:09:48;7.72;;;2.67;;
9698;SDS011;10089;47.876;8.346;2023-07-20T04:12:14;5.88;;;3.00;;
9698;SDS011;10089;47.876;8.346;2023-07-20T04:14:39;9.02;;;3.00;;
9698;SDS011;10089;47.876;8.346;2023-07-20T04:17:05;4.82;;;2.88;;
9698;SDS011;10089;47.876;8.346;2023-07-20T04:19:30;4.00;;;2.83;;
9698;SDS011;10089;47.876;8.346;2023-07-20T04:21:56;6.18;;;2.90;;
9698;SDS011;10089;47.876;8.346;2023-07-20T04:24:21;5.35;;;2.80;;
9698;SDS011;10089;47.876;8.346;2023-07-20T04:26:47;7.15;;;2.70;;
9698;SDS011;10089;47.876;8.346;2023-07-20T04:29:13;8.13;;;3.17;;
9698;SDS011;10089;47.876;8.346;2023-07-20T04:31:38;3.92;;;3.20;;
9698;SDS011;10089;47.876;8.346;2023-07-20T04:34:04;3.20;;;2.67;;
9698;SDS011;10089;47.876;8.346;2023-07-20T04:36:29;7.70;;;3.25;;
9698;SDS011;10089;47.876;8.346;2023-07-20T04:38:55;6.15;;;2.53;;
9698;SDS011;10089;47.876;8.346;2023-07-20T04:41:20;9.02;;;3.00;;
9698;SDS011;10089;47.876;8.346;2023-07-20T04:43:46;6.47;;;2.55;;
9698;SDS011;10089;47.876;8.346;2023-07-20T04:46:12;4.97;;;2.78;;
9698;SDS011;10089;47.876;8.346;2023-07-20T04:48:38;5.93;;;2.90;;
9698;SDS011;10089;47.876;8.346;2023-07-20T04:51:05;7.05;;;3.28;;
9698;SDS011;10089;47.876;8.346;2023-07-20T04:53:31;4.45;;;2.78;;
9698;SDS011;10089;47.876;8.346;2023-07-20T04:55:56;4.25;;;2.90;;
9698;SDS011;10089;47.876;8.346;2023-07-20T04:58:22;2.95;;;2.60;;
9698;SDS011;10089;47.876;8.346;2023-07-20T05:00:49;4.53;;;2.85;;
9698;SDS011;10089;47.876;8.346;2023-07-20T05:03:16;4.50;;;2.95;;
9698;SDS011;10089;47.876;8.346;2023-07-20T05:05:43;4.95;;;2.78;;
9698;SDS011;10089;47.876;8.346;2023-07-20T05:08:09;3.53;;;2.40;;
9698;SDS011;10089;47.876;8.346;2023-07-20T05:10:35;4.72;;;2.67;;
9698;SDS011;10089;47.876;8.346;2023-07-20T05:13:01;5.28;;;2.95;;
9698;SDS011;10089;47.876;8.346;2023-07-20T05:15:26;4.72;;;3.20;;
9698;SDS011;10089;47.876;8.346;2023-07-20T05:17:52;8.35;;;3.17;;
9698;SDS011;10089;47.876;8.346;2023-07-20T05:20:18;5.95;;;3.22;;
9698;SDS011;10089;47.876;8.346;2023-07-20T05:22:44;5.50;;;2.63;;
9698;SDS011;10089;47.876;8.346;2023-07-20T05:25:10;6.28;;;3.03;;
9698;SDS011;10089;47.876;8.346;2023-07-20T05:27:36;6.32;;;3.00;;
9698;SDS011;10089;47.876;8.346;2023-07-20T05:30:03;5.25;;;3.35;;
9698;SDS011;10089;47.876;8.346;2023-07-20T05:32:29;10.90;;;3.20;;
9698;SDS011;10089;47.876;8.346;2023-07-20T05:34:55;8.48;;;4.22;;
9698;SDS011;10089;47.876;8.346;2023-07-20T05:37:21;9.27;;;4.03;;
9698;SDS011;10089;47.876;8.346;2023-07-20T05:39:46;7.43;;;4.15;;
9698;SDS011;10089;47.876;8.346;2023-07-20T05:42:12;4.68;;;3.00;;
9698;SDS011;10089;47.876;8.346;2023-07-20T05:44:38;5.78;;;2.50;;
9698;SDS011;10089;47.876;8.346;2023-07-20T05:47:04;4.90;;;2.63;;
9698;SDS011;10089;47.876;8.346;2023-07-20T05:49:30;5.00;;;3.15;;
9698;SDS011;10089;47.876;8.346;2023-07-20T05:51:56;5.32;;;2.72;;
9698;SDS011;10089;47.876;8.346;2023-07-20T05:54:22;11.85;;;3.03;;
9698;SDS011;10089;47.876;8.346;2023-07-20T05:56:50;5.45;;;2.67;;
9698;SDS011;10089;47.876;8.346;2023-07-20T05:59:16;8.52;;;3.05;;
9698;SDS011;10089;47.876;8.346;2023-07-20T06:01:42;4.47;;;2.78;;
9698;SDS011;10089;47.876;8.346;2023-07-20T06:04:09;5.32;;;2.92;;
9698;SDS011;10089;47.876;8.346;2023-07-20T06:06:34;7.82;;;2.90;;
9698;SDS011;10089;47.876;8.346;2023-07-20T06:09:00;3.28;;;2.28;;
9698;SDS011;10089;47.876;8.346;2023-07-20T06:11:29;5.45;;;2.88;;
9698;SDS011;10089;47.876;8.346;2023-07-20T06:13:56;5.20;;;2.65;;
9698;SDS011;10089;47.876;8.346;2023-07-20T06:16:22;6.35;;;3.22;;
9698;SDS011;10089;47.876;8.346;2023-07-20T06:18:48;3.40;;;2.80;;
9698;SDS011;10089;47.876;8.346;2023-07-20T06:21:16;3.53;;;2.20;;
9698;SDS011;10089;47.876;8.346;2023-07-20T06:23:42;6.70;;;2.65;;
9698;SDS011;10089;47.876;8.346;2023-07-20T06:26:07;10.70;;;3.00;;
9698;SDS011;10089;47.876;8.346;2023-07-20T06:28:33;7.28;;;2.35;;
9698;SDS011;10089;47.876;8.346;2023-07-20T06:31:00;5.88;;;2.22;;
9698;SDS011;10089;47.876;8.346;2023-07-20T06:33:26;3.58;;;2.40;;
9698;SDS011;10089;47.876;8.346;2023-07-20T06:35:52;4.35;;;2.20;;
9698;SDS011;10089;47.876;8.346;2023-07-20T06:38:18;6.03;;;2.50;;
9698;SDS011;10089;47.876;8.346;2023-07-20T06:40:45;3.78;;;2.38;;
9698;SDS011;10089;47.876;8.346;2023-07-20T06:43:11;3.42;;;2.38;;
9698;SDS011;10089;47.876;8.346;2023-07-20T06:45:37;6.47;;;2.20;;
9698;SDS011;10089;47.876;8.346;2023-07-20T06:48:03;5.05;;;2.35;;
9698;SDS011;10089;47.876;8.346;2023-07-20T06:50:29;3.60;;;2.63;;
9698;SDS011;10089;47.876;8.346;2023-07-20T06:52:54;4.13;;;2.25;;
9698;SDS011;10089;47.876;8.346;2023-07-20T06:55:20;5.80;;;1.92;;
9698;SDS011;10089;47.876;8.346;2023-07-20T06:57:46;3.80;;;2.20;;
9698;SDS011;10089;47.876;8.346;2023-07-20T07:00:11;2.83;;;2.00;;
9698;SDS011;10089;47.876;8.346;2023-07-20T07:02:38;4.22;;;1.88;;
9698;SDS011;10089;47.876;8.346;2023-07-20T07:05:03;3.80;;;2.10;;
9698;SDS011;10089;47.876;8.346;2023-07-20T07:07:30;2.53;;;2.08;;
9698;SDS011;10089;47.876;8.346;2023-07-20T07:09:55;7.47;;;2.30;;
9698;SDS011;10089;47.876;8.346;2023-07-20T07:12:21;5.53;;;2.50;;
9698;SDS011;10089;47.876;8.346;2023-07-20T07:14:47;3.70;;;1.88;;
9698;SDS011;10089;47.876;8.346;2023-07-20T07:17:12;5.20;;;2.60;;
9698;SDS011;10089;47.876;8.346;2023-07-20T07:19:38;18.98;;;8.15;;
9698;SDS011;10089;47.876;8.346;2023-07-20T07:22:04;4.97;;;2.67;;
9698;SDS011;10089;47.876;8.346;2023-07-20T07:24:29;3.42;;;2.10;;
9698;SDS011;10089;47.876;8.346;2023-07-20T07:26:59;4.93;;;2.45;;
9698;SDS011;10089;47.876;8.346;2023-07-20T07:29:25;3.03;;;1.98;;
9698;SDS011;10089;47.876;8.346;2023-07-20T07:31:51;5.32;;;2.28;;
9698;SDS011;10089;47.876;8.346;2023-07-20T07:34:16;5.65;;;2.10;;
9698;SDS011;10089;47.876;8.346;2023-07-20T07:36:42;11.57;;;2.20;;
9698;SDS011;10089;47.876;8.346;2023-07-20T07:39:08;3.47;;;1.92;;
9698;SDS011;10089;47.876;8.346;2023-07-20T07:41:34;6.20;;;2.30;;
9698;SDS011;10089;47.876;8.346;2023-07-20T07:44:00;2.03;;;1.83;;
9698;SDS011;10089;47.876;8.346;2023-07-20T07:46:26;4.00;;;2.20;;
9698;SDS011;10089;47.876;8.346;2023-07-20T07:48:51;5.35;;;2.10;;
9698;SDS011;10089;47.876;8.346;2023-07-20T07:51:18;2.58;;;1.98;;
9698;SDS011;10089;47.876;8.346;2023-07-20T07:53:45;2.38;;;1.90;;
9698;SDS011;10089;47.876;8.346;2023-07-20T07:56:11;2.67;;;1.83;;
9698;SDS011;10089;47.876;8.346;2023-07-20T07:58:36;2.72;;;2.10;;
9698;SDS011;10089;47.876;8.346;2023-07-20T08:01:02;2.80;;;1.70;;
9698;SDS011;10089;47.876;8.346;2023-07-20T08:03:28;2.40;;;1.73;;
9698;SDS011;10089;47.876;8.346;2023-07-20T08:05:54;2.97;;;2.03;;
9698;SDS011;10089;47.876;8.346;2023-07-20T08:08:24;3.75;;;2.10;;
9698;SDS011;10089;47.876;8.346;2023-07-20T08:10:52;4.13;;;1.85;;
9698;SDS011;10089;47.876;8.346;2023-07-20T08:13:19;3.25;;;2.13;;
9698;SDS011;10089;47.876;8.346;2023-07-20T08:15:45;3.25;;;1.98;;
9698;SDS011;10089;47.876;8.346;2023-07-20T08:18:15;2.00;;;1.80;;
9698;SDS011;10089;47.876;8.346;2023-07-20T08:20:44;6.25;;;1.70;;
9698;SDS011;10089;47.876;8.346;2023-07-20T08:23:10;4.30;;;2.08;;
9698;SDS011;10089;47.876;8.346;2023-07-20T08:25:36;2.83;;;1.70;;
9698;SDS011;10089;47.876;8.346;2023-07-20T08:28:04;4.25;;;2.40;;
9698;SDS011;10089;47.876;8.346;2023-07-20T08:30:39;5.13;;;1.95;;
9698;SDS011;10089;47.876;8.346;2023-07-20T08:33:18;4.80;;;1.80;;
9698;SDS011;10089;47.876;8.346;2023-07-20T08:35:45;3.42;;;2.00;;
9698;SDS011;10089;47.876;8.346;2023-07-20T08:38:10;4.25;;;1.98;;
9698;SDS011;10089;47.876;8.346;2023-07-20T08:40:43;2.42;;;1.83;;
9698;SDS011;10089;47.876;8.346;2023-07-20T08:43:11;6.50;;;1.90;;
9698;SDS011;10089;47.876;8.346;2023-07-20T08:45:38;4.22;;;2.10;;
9698;SDS011;10089;47.876;8.346;2023-07-20T08:48:05;2.65;;;1.98;;
9698;SDS011;10089;47.876;8.346;2023-07-20T08:50:40;4.75;;;2.05;;
9698;SDS011;10089;47.876;8.346;2023-07-20T08:53:07;5.07;;;1.73;;
9698;SDS011;10089;47.876;8.346;2023-07-20T08:55:34;5.18;;;2.13;;
9698;SDS011;10089;47.876;8.346;2023-07-20T08:58:01;2.50;;;1.90;;
9698;SDS011;10089;47.876;8.346;2023-07-20T09:00:27;3.00;;;2.10;;
9698;SDS011;10089;47.876;8.346;2023-07-20T09:02:54;3.75;;;2.20;;
9698;SDS011;10089;47.876;8.346;2023-07-20T09:05:21;1.75;;;1.63;;
9698;SDS011;10089;47.876;8.346;2023-07-20T09:07:48;4.25;;;2.08;;
9698;SDS011;10089;47.876;8.346;2023-07-20T09:10:14;3.35;;;2.00;;
9698;SDS011;10089;47.876;8.346;2023-07-20T09:12:41;4.05;;;2.08;;
9698;SDS011;10089;47.876;8.346;2023-07-20T09:15:08;3.15;;;1.80;;
9698;SDS011;10089;47.876;8.346;2023-07-20T09:17:35;4.55;;;1.80;;
9698;SDS011;10089;47.876;8.346;2023-07-20T09:20:07;3.35;;;2.00;;
9698;SDS011;10089;47.876;8.346;2023-07-20T09:22:35;3.60;;;2.17;;
9698;SDS011;10089;47.876;8.346;2023-07-20T09:25:14;3.60;;;2.03;;
9698;SDS011;10089;47.876;8.346;2023-07-20T09:27:41;3.35;;;2.13;;
9698;SDS011;10089;47.876;8.346;2023-07-20T09:30:08;4.53;;;2.10;;
9698;SDS011;10089;47.876;8.346;2023-07-20T09:32:43;3.45;;;1.90;;
9698;SDS011;10089;47.876;8.346;2023-07-20T09:35:28;3.45;;;1.88;;
9698;SDS011;10089;47.876;8.346;2023-07-20T09:38:00;5.45;;;2.28;;
9698;SDS011;10089;47.876;8.346;2023-07-20T09:40:27;2.95;;;1.67;;
9698;SDS011;10089;47.876;8.346;2023-07-20T09:42:53;2.78;;;2.22;;
9698;SDS011;10089;47.876;8.346;2023-07-20T09:45:35;4.13;;;1.75;;
9698;SDS011;10089;47.876;8.346;2023-07-20T09:48:04;2.17;;;1.65;;
9698;SDS011;10089;47.876;8.346;2023-07-20T09:50:32;6.40;;;2.30;;
9698;SDS011;10089;47.876;8.346;2023-07-20T09:52:58;6.72;;;2.13;;
9698;SDS011;10089;47.876;8.346;2023-07-20T09:55:25;2.65;;;1.75;;
9698;SDS011;10089;47.876;8.346;2023-07-20T09:57:52;2.70;;;1.80;;
9698;SDS011;10089;47.876;8.346;2023-07-20T10:00:18;3.38;;;1.70;;
9698;SDS011;10089;47.876;8.346;2023-07-20T10:02:44;3.83;;;1.80;;
9698;SDS011;10089;47.876;8.346;2023-07-20T10:05:14;2.15;;;1.60;;
9698;SDS011;10089;47.876;8.346;2023-07-20T10:07:46;4.05;;;1.75;;
9698;SDS011;10089;47.876;8.346;2023-07-20T10:10:13;5.75;;;1.50;;
9698;SDS011;10089;47.876;8.346;2023-07-20T10:12:47;2.95;;;1.85;;
9698;SDS011;10089;47.876;8.346;2023-07-20T10:15:19;2.70;;;1.70;;
9698;SDS011;10089;47.876;8.346;2023-07-20T10:18:02;2.28;;;1.63;;
9698;SDS011;10089;47.876;8.346;2023-07-20T10:20:35;3.55;;;1.75;;
9698;SDS011;10089;47.876;8.346;2023-07-20T10:23:04;4.45;;;1.60;;
9698;SDS011;10089;47.876;8.346;2023-07-20T10:25:31;4.53;;;1.92;;
9698;SDS011;10089;47.876;8.346;2023-07-20T10:27:57;2.95;;;1.63;;
9698;SDS011;10089;47.876;8.346;2023-07-20T10:30:24;3.92;;;1.75;;
9698;SDS011;10089;47.876;8.346;2023-07-20T10:32:51;3.92;;;1.95;;
9698;SDS011;10089;47.876;8.346;2023-07-20T10:35:18;2.15;;;1.75;;
9698;SDS011;10089;47.876;8.346;2023-07-20T10:37:50;3.88;;;1.85;;
9698;SDS011;10089;47.876;8.346;2023-07-20T10:42:49;1.75;;;1.42;;
9698;SDS011;10089;47.876;8.346;2023-07-20T10:45:16;3.75;;;1.67;;
9698;SDS011;10089;47.876;8.346;2023-07-20T10:47:45;2.13;;;1.58;;
9698;SDS011;10089;47.876;8.346;2023-07-20T10:50:11;2.30;;;1.60;;
9698;SDS011;10089;47.876;8.346;2023-07-20T10:52:40;4.18;;;1.70;;
9698;SDS011;10089;47.876;8.346;2023-07-20T10:55:16;4.55;;;1.92;;
9698;SDS011;10089;47.876;8.346;2023-07-20T10:57:42;2.58;;;1.83;;
9698;SDS011;10089;47.876;8.346;2023-07-20T11:00:08;2.40;;;1.70;;
9698;SDS011;10089;47.876;8.346;2023-07-20T11:02:46;3.60;;;2.20;;
9698;SDS011;10089;47.876;8.346;2023-07-20T11:08:04;3.92;;;1.90;;
9698;SDS011;10089;47.876;8.346;2023-07-20T11:10:31;2.50;;;1.50;;
9698;SDS011;10089;47.876;8.346;2023-07-20T11:13:15;1.58;;;1.48;;
9698;SDS011;10089;47.876;8.346;2023-07-20T11:16:23;2.25;;;1.77;;
9698;SDS011;10089;47.876;8.346;2023-07-20T11:18:30;3.42;;;1.67;;
9698;SDS011;10089;47.876;8.346;2023-07-20T11:20:59;2.70;;;1.75;;
9698;SDS011;10089;47.876;8.346;2023-07-20T11:23:25;4.25;;;1.90;;
9698;SDS011;10089;47.876;8.346;2023-07-20T11:25:51;3.47;;;1.73;;
9698;SDS011;10089;47.876;8.346;2023-07-20T11:28:17;3.38;;;1.70;;
9698;SDS011;10089;47.876;8.346;2023-07-20T11:30:42;2.25;;;1.80;;
9698;SDS011;10089;47.876;8.346;2023-07-20T11:33:08;6.30;;;2.08;;
9698;SDS011;10089;47.876;8.346;2023-07-20T11:35:43;2.50;;;1.50;;
9698;SDS011;10089;47.876;8.346;2023-07-20T11:38:11;3.80;;;2.00;;
9698;SDS011;10089;47.876;8.346;2023-07-20T11:40:42;2.13;;;1.75;;
9698;SDS011;10089;47.876;8.346;2023-07-20T11:43:11;4.78;;;1.90;;
9698;SDS011;10089;47.876;8.346;2023-07-20T11:45:38;4.28;;;1.77;;
9698;SDS011;10089;47.876;8.346;2023-07-20T11:48:04;2.38;;;1.80;;
9698;SDS011;10089;47.876;8.346;2023-07-20T11:50:30;6.00;;;1.70;;
9698;SDS011;10089;47.876;8.346;2023-07-20T11:52:57;2.70;;;1.70;;
9698;SDS011;10089;47.876;8.346;2023-07-20T11:55:23;2.80;;;1.90;;
9698;SDS011;10089;47.876;8.346;2023-07-20T11:58:04;3.58;;;1.73;;
9698;SDS011;10089;47.876;8.346;2023-07-20T12:00:31;3.42;;;1.80;;
9698;SDS011;10089;47.876;8.346;2023-07-20T12:02:58;1.95;;;1.55;;
9698;SDS011;10089;47.876;8.346;2023-07-20T12:05:24;6.60;;;2.00;;
9698;SDS011;10089;47.876;8.346;2023-07-20T12:07:51;2.53;;;1.80;;
9698;SDS011;10089;47.876;8.346;2023-07-20T12:10:22;2.47;;;1.77;;
9698;SDS011;10089;47.876;8.346;2023-07-20T12:12:53;4.55;;;1.60;;
9698;SDS011;10089;47.876;8.346;2023-07-20T12:15:20;3.55;;;1.55;;
9698;SDS011;10089;47.876;8.346;2023-07-20T12:17:49;2.65;;;1.70;;
9698;SDS011;10089;47.876;8.346;2023-07-20T12:20:32;5.63;;;1.98;;
9698;SDS011;10089;47.876;8.346;2023-07-20T12:23:00;2.92;;;1.63;;
9698;SDS011;10089;47.876;8.346;2023-07-20T12:25:39;2.72;;;1.92;;
9698;SDS011;10089;47.876;8.346;2023-07-20T12:28:11;1.83;;;1.40;;
9698;SDS011;10089;47.876;8.346;2023-07-20T12:30:39;1.95;;;1.50;;
9698;SDS011;10089;47.876;8.346;2023-07-20T12:33:05;3.00;;;1.75;;
9698;SDS011;10089;47.876;8.346;2023-07-20T12:35:31;2.00;;;1.73;;
9698;SDS011;10089;47.876;8.346;2023-07-20T12:37:57;1.90;;;1.50;;
9698;SDS011;10089;47.876;8.346;2023-07-20T12:40:23;2.35;;;1.33;;
9698;SDS011;10089;47.876;8.346;2023-07-20T12:42:49;2.20;;;1.70;;
9698;SDS011;10089;47.876;8.346;2023-07-20T12:45:15;3.33;;;1.70;;
9698;SDS011;10089;47.876;8.346;2023-07-20T12:47:41;3.30;;;1.60;;
9698;SDS011;10089;47.876;8.346;2023-07-20T12:50:08;3.38;;;1.70;;
9698;SDS011;10089;47.876;8.346;2023-07-20T12:52:38;2.65;;;1.70;;
9698;SDS011;10089;47.876;8.346;2023-07-20T12:55:05;1.85;;;1.70;;
9698;SDS011;10089;47.876;8.346;2023-07-20T12:57:33;1.85;;;1.70;;
9698;SDS011;10089;47.876;8.346;2023-07-20T13:00:00;1.92;;;1.40;;
9698;SDS011;10089;47.876;8.346;2023-07-20T13:02:26;1.98;;;1.58;;
9698;SDS011;10089;47.876;8.346;2023-07-20T13:04:52;7.72;;;2.33;;
9698;SDS011;10089;47.876;8.346;2023-07-20T13:07:19;3.17;;;1.75;;
9698;SDS011;10089;47.876;8.346;2023-07-20T13:09:59;2.92;;;1.70;;
9698;SDS011;10089;47.876;8.346;2023-07-20T13:12:26;6.57;;;1.80;;
9698;SDS011;10089;47.876;8.346;2023-07-20T13:14:52;5.25;;;1.70;;
9698;SDS011;10089;47.876;8.346;2023-07-20T13:17:19;3.10;;;1.75;;
9698;SDS011;10089;47.876;8.346;2023-07-20T13:19:44;3.60;;;1.52;;
9698;SDS011;10089;47.876;8.346;2023-07-20T13:22:10;2.03;;;1.50;;
9698;SDS011;10089;47.876;8.346;2023-07-20T13:24:36;1.92;;;1.60;;
9698;SDS011;10089;47.876;8.346;2023-07-20T13:27:02;3.08;;;1.52;;
9698;SDS011;10089;47.876;8.346;2023-07-20T13:29:27;2.58;;;1.80;;
9698;SDS011;10089;47.876;8.346;2023-07-20T13:31:53;3.55;;;1.50;;
9698;SDS011;10089;47.876;8.346;2023-07-20T13:34:18;3.40;;;2.15;;
9698;SDS011;10089;47.876;8.346;2023-07-20T13:36:44;1.65;;;1.55;;
9698;SDS011;10089;47.876;8.346;2023-07-20T13:39:10;2.42;;;1.70;;
9698;SDS011;10089;47.876;8.346;2023-07-20T13:41:35;2.47;;;1.65;;
9698;SDS011;10089;47.876;8.346;2023-07-20T13:44:01;3.10;;;1.60;;
9698;SDS011;10089;47.876;8.346;2023-07-20T13:46:26;2.28;;;1.70;;
9698;SDS011;10089;47.876;8.346;2023-07-20T13:48:52;3.20;;;1.77;;
9698;SDS011;10089;47.876;8.346;2023-07-20T13:51:17;2.00;;;1.60;;
9698;SDS011;10089;47.876;8.346;2023-07-20T13:53:45;2.80;;;1.55;;
9698;SDS011;10089;47.876;8.346;2023-07-20T13:56:11;2.53;;;1.58;;
9698;SDS011;10089;47.876;8.346;2023-07-20T13:58:37;5.18;;;1.77;;
9698;SDS011;10089;47.876;8.346;2023-07-20T14:01:02;3.03;;;1.40;;
9698;SDS011;10089;47.876;8.346;2023-07-20T14:03:28;3.53;;;1.50;;
9698;SDS011;10089;47.876;8.346;2023-07-20T14:05:53;2.78;;;1.90;;
9698;SDS011;10089;47.876;8.346;2023-07-20T14:08:19;3.15;;;1.60;;
9698;SDS011;10089;47.876;8.346;2023-07-20T14:10:45;2.90;;;1.70;;
9698;SDS011;10089;47.876;8.346;2023-07-20T14:13:11;2.08;;;1.52;;
9698;SDS011;10089;47.876;8.346;2023-07-20T14:15:38;3.60;;;1.75;;
9698;SDS011;10089;47.876;8.346;2023-07-20T14:18:04;2.13;;;1.50;;
9698;SDS011;10089;47.876;8.346;2023-07-20T14:20:29;1.48;;;1.38;;
9698;SDS011;10089;47.876;8.346;2023-07-20T14:22:55;3.10;;;1.90;;
9698;SDS011;10089;47.876;8.346;2023-07-20T14:25:21;1.75;;;1.60;;
9698;SDS011;10089;47.876;8.346;2023-07-20T14:27:46;2.20;;;1.60;;
9698;SDS011;10089;47.876;8.346;2023-07-20T14:30:12;6.57;;;1.65;;
9698;SDS011;10089;47.876;8.346;2023-07-20T14:32:38;2.47;;;1.60;;
9698;SDS011;10089;47.876;8.346;2023-07-20T14:35:04;2.65;;;1.73;;
9698;SDS011;10089;47.876;8.346;2023-07-20T14:37:31;2.95;;;1.70;;
9698;SDS011;10089;47.876;8.346;2023-07-20T14:39:57;3.15;;;1.70;;
9698;SDS011;10089;47.876;8.346;2023-07-20T14:42:22;3.03;;;1.95;;
9698;SDS011;10089;47.876;8.346;2023-07-20T14:44:48;2.30;;;1.80;;
9698;SDS011;10089;47.876;8.346;2023-07-20T14:47:13;2.33;;;1.67;;
9698;SDS011;10089;47.876;8.346;2023-07-20T14:49:39;1.98;;;1.52;;
9698;SDS011;10089;47.876;8.346;2023-07-20T14:52:04;4.20;;;1.70;;
9698;SDS011;10089;47.876;8.346;2023-07-20T14:54:30;4.15;;;1.73;;
9698;SDS011;10089;47.876;8.346;2023-07-20T14:56:56;3.03;;;1.85;;
9698;SDS011;10089;47.876;8.346;2023-07-20T14:59:22;3.88;;;1.73;;
9698;SDS011;10089;47.876;8.346;2023-07-20T15:01:47;2.03;;;1.40;;
9698;SDS011;10089;47.876;8.346;2023-07-20T15:04:13;2.30;;;1.98;;
9698;SDS011;10089;47.876;8.346;2023-07-20T15:06:40;2.50;;;1.80;;
9698;SDS011;10089;47.876;8.346;2023-07-20T15:09:06;2.30;;;1.70;;